Sea Amore — H9OC — position and weather

sailwx.info

Track history (hours):
 
Tides and Currents Weather Stations Pressure Air Temp Water Temp Dewpoint Dewpoint Depression Visibility Wind Speed Wind Dir Waves Ship Positions

Sea Amore

Last reported at 2016-May-17 08:32 UTC. Time now 2016-Jun-30 23:14 UTC.
Position N 30°45' E 032°19'.
Warning: this ship's position is 44 days out of date.

Length 148 m; draft 6.5 m.

Type: Cargo ship. MMSI: 357019000.

Date/timePositionNaut miles runAvg speedWind from/ knotsBaromVisibWave heightAir tempDewpointWater temp
2016-May-17 08:32N 30°45' E 032°19'8 8.4
2016-May-17 07:33N 30°53' E 032°19'10 9.9
2016-May-17 06:30N 31°03' E 032°19'10 9.6
2016-May-17 05:27N 31°13' E 032°18'2 2.5
2016-May-17 04:33N 31°16' E 032°19'0 0.0
2016-May-17 03:33N 31°16' E 032°19'0 0.0
2016-May-17 02:33N 31°16' E 032°19'0 0.0
2016-May-17 01:33N 31°16' E 032°19'0 0.0
2016-May-17 00:33N 31°16' E 032°19'0 0.0
2016-May-16 23:33N 31°16' E 032°19'0 0.0
2016-May-16 19:33N 31°16' E 032°19'0 0.0
2016-May-16 18:33N 31°16' E 032°19'0 0.0
2016-May-16 17:33N 31°16' E 032°19'0 0.0
2016-May-16 16:33N 31°16' E 032°19'0 0.0
2016-May-16 15:33N 31°16' E 032°19'0 0.0
2016-May-16 14:33N 31°16' E 032°19'0 0.4
2016-May-16 13:33N 31°16' E 032°19'6 6.1
2016-May-16 12:33N 31°22' E 032°20'1 1.0
2016-May-16 11:31N 31°22' E 032°19'0 0.0
2016-May-16 10:31N 31°22' E 032°19'0 0.0
2016-May-16 09:34N 31°22' E 032°19'0 0.0
2016-May-16 06:06N 31°22' E 032°19'17 2.3
2016-May-15 22:29N 31°36' E 032°08'1010.7
2016-May-15 21:30N 31°43' E 031°59'1010.8
2016-May-15 20:33N 31°49' E 031°50'1110.9
2016-May-15 19:33N 31°56' E 031°40'2210.9
2016-May-15 17:33N 32°15' E 031°27'1211.6
2016-May-15 16:33N 32°26' E 031°21'51410.2
2016-May-13 14:20N 39°44' E 025°48'1010.8
2016-May-13 13:24N 39°53' E 025°52'910.0
2016-May-13 12:33N 40°00' E 025°58'137 8.5
2016-May-12 20:25N 40°50' E 028°46'1011.0
2016-May-12 19:33N 40°57' E 028°55'5 0.1
2016-May-11 00:28N 41°00' E 029°01'  
Track history (hours):
 
Tides and Currents Weather Stations Pressure Air Temp Water Temp Dewpoint Dewpoint Depression Visibility Wind Speed Wind Dir Waves Ship Positions

Sea Amore

Last reported at 2016-May-17 08:32 UTC. Time now 2016-Jun-30 23:14 UTC.
Position N 30°45' E 032°19'.
Warning: this ship's position is 44 days out of date.

Length 148 m; draft 6.5 m.

Type: Cargo ship. MMSI: 357019000.

Date/timePositionNaut miles runAvg speedWind from/ knotsBaromVisibWave heightAir tempDewpointWater temp
2016-May-17 08:32N 30°45' E 032°19'8 8.4
2016-May-17 07:33N 30°53' E 032°19'10 9.9
2016-May-17 06:30N 31°03' E 032°19'10 9.6
2016-May-17 05:27N 31°13' E 032°18'2 2.5
2016-May-17 04:33N 31°16' E 032°19'0 0.0
2016-May-17 03:33N 31°16' E 032°19'0 0.0
2016-May-17 02:33N 31°16' E 032°19'0 0.0
2016-May-17 01:33N 31°16' E 032°19'0 0.0
2016-May-17 00:33N 31°16' E 032°19'0 0.0
2016-May-16 23:33N 31°16' E 032°19'0 0.0
2016-May-16 19:33N 31°16' E 032°19'0 0.0
2016-May-16 18:33N 31°16' E 032°19'0 0.0
2016-May-16 17:33N 31°16' E 032°19'0 0.0
2016-May-16 16:33N 31°16' E 032°19'0 0.0
2016-May-16 15:33N 31°16' E 032°19'0 0.0
2016-May-16 14:33N 31°16' E 032°19'0 0.4
2016-May-16 13:33N 31°16' E 032°19'6 6.1
2016-May-16 12:33N 31°22' E 032°20'1 1.0
2016-May-16 11:31N 31°22' E 032°19'0 0.0
2016-May-16 10:31N 31°22' E 032°19'0 0.0
2016-May-16 09:34N 31°22' E 032°19'0 0.0
2016-May-16 06:06N 31°22' E 032°19'17 2.3
2016-May-15 22:29N 31°36' E 032°08'1010.7
2016-May-15 21:30N 31°43' E 031°59'1010.8
2016-May-15 20:33N 31°49' E 031°50'1110.9
2016-May-15 19:33N 31°56' E 031°40'2210.9
2016-May-15 17:33N 32°15' E 031°27'1211.6
2016-May-15 16:33N 32°26' E 031°21'51410.2
2016-May-13 14:20N 39°44' E 025°48'1010.8
2016-May-13 13:24N 39°53' E 025°52'910.0
2016-May-13 12:33N 40°00' E 025°58'137 8.5
2016-May-12 20:25N 40°50' E 028°46'1011.0
2016-May-12 19:33N 40°57' E 028°55'5 0.1
2016-May-11 00:28N 41°00' E 029°01'  

Dump ship's entire track history